sensor_id;sensor_type;location;lat;lon;timestamp;P1;durP1;ratioP1;P2;durP2;ratioP2
2940;SDS011;1480;51.456;6.670;2023-07-02T00:02:07;3.77;;;1.83;;
2940;SDS011;1480;51.456;6.670;2023-07-02T00:04:34;3.70;;;1.30;;
2940;SDS011;1480;51.456;6.670;2023-07-02T00:07:00;2.50;;;1.40;;
2940;SDS011;1480;51.456;6.670;2023-07-02T00:09:29;3.20;;;1.50;;
2940;SDS011;1480;51.456;6.670;2023-07-02T00:11:57;3.40;;;1.73;;
2940;SDS011;1480;51.456;6.670;2023-07-02T00:14:24;2.43;;;1.70;;
2940;SDS011;1480;51.456;6.670;2023-07-02T00:16:52;3.50;;;1.60;;
2940;SDS011;1480;51.456;6.670;2023-07-02T00:19:19;4.33;;;2.07;;
2940;SDS011;1480;51.456;6.670;2023-07-02T00:21:45;4.07;;;1.77;;
2940;SDS011;1480;51.456;6.670;2023-07-02T00:24:13;4.23;;;2.40;;
2940;SDS011;1480;51.456;6.670;2023-07-02T00:26:41;6.50;;;1.90;;
2940;SDS011;1480;51.456;6.670;2023-07-02T00:29:11;5.10;;;2.00;;
2940;SDS011;1480;51.456;6.670;2023-07-02T00:31:37;3.97;;;2.10;;
2940;SDS011;1480;51.456;6.670;2023-07-02T00:34:05;5.40;;;1.63;;
2940;SDS011;1480;51.456;6.670;2023-07-02T00:36:32;2.63;;;1.57;;
2940;SDS011;1480;51.456;6.670;2023-07-02T00:39:01;2.97;;;2.17;;
2940;SDS011;1480;51.456;6.670;2023-07-02T00:41:29;3.63;;;1.60;;
2940;SDS011;1480;51.456;6.670;2023-07-02T00:43:57;6.30;;;2.10;;
2940;SDS011;1480;51.456;6.670;2023-07-02T00:46:26;6.00;;;2.13;;
2940;SDS011;1480;51.456;6.670;2023-07-02T00:48:53;2.53;;;1.63;;
2940;SDS011;1480;51.456;6.670;2023-07-02T00:51:23;5.07;;;1.60;;
2940;SDS011;1480;51.456;6.670;2023-07-02T00:53:51;4.40;;;2.10;;
2940;SDS011;1480;51.456;6.670;2023-07-02T00:56:20;3.63;;;2.07;;
2940;SDS011;1480;51.456;6.670;2023-07-02T00:58:47;2.77;;;1.63;;
2940;SDS011;1480;51.456;6.670;2023-07-02T01:01:15;5.43;;;1.83;;
2940;SDS011;1480;51.456;6.670;2023-07-02T01:03:52;6.10;;;2.20;;
2940;SDS011;1480;51.456;6.670;2023-07-02T01:06:27;3.80;;;2.10;;
2940;SDS011;1480;51.456;6.670;2023-07-02T01:08:57;3.87;;;2.17;;
2940;SDS011;1480;51.456;6.670;2023-07-02T01:11:25;6.73;;;2.20;;
2940;SDS011;1480;51.456;6.670;2023-07-02T01:13:55;6.43;;;3.20;;
2940;SDS011;1480;51.456;6.670;2023-07-02T01:16:25;7.33;;;2.07;;
2940;SDS011;1480;51.456;6.670;2023-07-02T01:18:58;6.30;;;2.17;;
2940;SDS011;1480;51.456;6.670;2023-07-02T01:21:31;4.37;;;2.20;;
2940;SDS011;1480;51.456;6.670;2023-07-02T01:23:58;2.90;;;1.80;;
2940;SDS011;1480;51.456;6.670;2023-07-02T01:26:27;3.40;;;2.20;;
2940;SDS011;1480;51.456;6.670;2023-07-02T01:28:55;4.90;;;1.80;;
2940;SDS011;1480;51.456;6.670;2023-07-02T01:31:22;3.43;;;1.97;;
2940;SDS011;1480;51.456;6.670;2023-07-02T01:33:51;6.07;;;2.67;;
2940;SDS011;1480;51.456;6.670;2023-07-02T01:36:17;4.40;;;2.43;;
2940;SDS011;1480;51.456;6.670;2023-07-02T01:38:45;5.27;;;2.00;;
2940;SDS011;1480;51.456;6.670;2023-07-02T01:41:15;3.97;;;1.80;;
2940;SDS011;1480;51.456;6.670;2023-07-02T01:43:41;4.13;;;2.20;;
2940;SDS011;1480;51.456;6.670;2023-07-02T01:46:08;5.47;;;2.10;;
2940;SDS011;1480;51.456;6.670;2023-07-02T01:48:35;5.10;;;2.60;;
2940;SDS011;1480;51.456;6.670;2023-07-02T01:51:01;7.47;;;2.30;;
2940;SDS011;1480;51.456;6.670;2023-07-02T01:53:28;4.07;;;2.20;;
2940;SDS011;1480;51.456;6.670;2023-07-02T01:55:56;3.67;;;2.13;;
2940;SDS011;1480;51.456;6.670;2023-07-02T01:58:23;5.60;;;2.17;;
2940;SDS011;1480;51.456;6.670;2023-07-02T02:00:50;6.23;;;2.80;;
2940;SDS011;1480;51.456;6.670;2023-07-02T02:03:17;4.90;;;2.67;;
2940;SDS011;1480;51.456;6.670;2023-07-02T02:05:44;8.93;;;2.70;;
2940;SDS011;1480;51.456;6.670;2023-07-02T02:08:10;6.70;;;2.43;;
2940;SDS011;1480;51.456;6.670;2023-07-02T02:10:38;6.97;;;2.70;;
2940;SDS011;1480;51.456;6.670;2023-07-02T02:13:06;5.40;;;2.93;;
2940;SDS011;1480;51.456;6.670;2023-07-02T02:15:32;12.20;;;3.70;;
2940;SDS011;1480;51.456;6.670;2023-07-02T02:17:59;6.63;;;3.20;;
2940;SDS011;1480;51.456;6.670;2023-07-02T02:20:26;8.73;;;3.40;;
2940;SDS011;1480;51.456;6.670;2023-07-02T02:22:53;7.77;;;3.57;;
2940;SDS011;1480;51.456;6.670;2023-07-02T02:25:21;7.93;;;3.70;;
2940;SDS011;1480;51.456;6.670;2023-07-02T02:27:48;24.87;;;3.93;;
2940;SDS011;1480;51.456;6.670;2023-07-02T02:30:16;8.07;;;3.57;;
2940;SDS011;1480;51.456;6.670;2023-07-02T02:32:43;6.87;;;2.73;;
2940;SDS011;1480;51.456;6.670;2023-07-02T02:35:11;6.40;;;3.03;;
2940;SDS011;1480;51.456;6.670;2023-07-02T02:37:38;6.63;;;3.10;;
2940;SDS011;1480;51.456;6.670;2023-07-02T02:40:06;9.90;;;3.70;;
2940;SDS011;1480;51.456;6.670;2023-07-02T02:42:35;9.60;;;3.80;;
2940;SDS011;1480;51.456;6.670;2023-07-02T02:45:02;8.70;;;3.57;;
2940;SDS011;1480;51.456;6.670;2023-07-02T02:47:31;10.70;;;4.30;;
2940;SDS011;1480;51.456;6.670;2023-07-02T02:49:58;12.60;;;3.60;;
2940;SDS011;1480;51.456;6.670;2023-07-02T02:52:25;6.63;;;3.40;;
2940;SDS011;1480;51.456;6.670;2023-07-02T02:54:52;8.33;;;3.37;;
2940;SDS011;1480;51.456;6.670;2023-07-02T02:57:18;10.83;;;4.53;;
2940;SDS011;1480;51.456;6.670;2023-07-02T02:59:45;7.33;;;4.27;;
2940;SDS011;1480;51.456;6.670;2023-07-02T03:02:12;11.40;;;3.83;;
2940;SDS011;1480;51.456;6.670;2023-07-02T03:04:40;7.63;;;4.37;;
2940;SDS011;1480;51.456;6.670;2023-07-02T03:07:09;9.63;;;3.47;;
2940;SDS011;1480;51.456;6.670;2023-07-02T03:09:36;15.60;;;4.23;;
2940;SDS011;1480;51.456;6.670;2023-07-02T03:12:05;7.03;;;4.03;;
2940;SDS011;1480;51.456;6.670;2023-07-02T03:14:32;7.53;;;4.40;;
2940;SDS011;1480;51.456;6.670;2023-07-02T03:16:59;11.77;;;4.37;;
2940;SDS011;1480;51.456;6.670;2023-07-02T03:19:26;7.27;;;3.70;;
2940;SDS011;1480;51.456;6.670;2023-07-02T03:21:55;8.57;;;3.90;;
2940;SDS011;1480;51.456;6.670;2023-07-02T03:24:21;9.30;;;3.47;;
2940;SDS011;1480;51.456;6.670;2023-07-02T03:26:50;6.17;;;3.50;;
2940;SDS011;1480;51.456;6.670;2023-07-02T03:29:17;13.73;;;4.87;;
2940;SDS011;1480;51.456;6.670;2023-07-02T03:31:45;10.17;;;3.53;;
2940;SDS011;1480;51.456;6.670;2023-07-02T03:34:12;12.93;;;5.03;;
2940;SDS011;1480;51.456;6.670;2023-07-02T03:36:39;8.17;;;4.17;;
2940;SDS011;1480;51.456;6.670;2023-07-02T03:39:07;12.43;;;4.47;;
2940;SDS011;1480;51.456;6.670;2023-07-02T03:41:35;8.00;;;4.47;;
2940;SDS011;1480;51.456;6.670;2023-07-02T03:44:02;13.90;;;3.60;;
2940;SDS011;1480;51.456;6.670;2023-07-02T03:46:29;11.30;;;5.30;;
2940;SDS011;1480;51.456;6.670;2023-07-02T03:48:56;10.17;;;5.00;;
2940;SDS011;1480;51.456;6.670;2023-07-02T03:51:23;13.23;;;5.20;;
2940;SDS011;1480;51.456;6.670;2023-07-02T03:53:50;10.93;;;5.50;;
2940;SDS011;1480;51.456;6.670;2023-07-02T03:56:18;12.10;;;5.03;;
2940;SDS011;1480;51.456;6.670;2023-07-02T03:58:45;14.40;;;5.27;;
2940;SDS011;1480;51.456;6.670;2023-07-02T04:01:12;9.93;;;4.60;;
2940;SDS011;1480;51.456;6.670;2023-07-02T04:03:38;12.30;;;5.00;;
2940;SDS011;1480;51.456;6.670;2023-07-02T04:06:14;10.53;;;4.10;;
2940;SDS011;1480;51.456;6.670;2023-07-02T04:08:40;11.57;;;3.80;;
2940;SDS011;1480;51.456;6.670;2023-07-02T04:11:07;8.27;;;4.70;;
2940;SDS011;1480;51.456;6.670;2023-07-02T04:13:35;13.47;;;5.40;;
2940;SDS011;1480;51.456;6.670;2023-07-02T04:16:02;11.50;;;4.87;;
2940;SDS011;1480;51.456;6.670;2023-07-02T04:18:29;11.40;;;4.87;;
2940;SDS011;1480;51.456;6.670;2023-07-02T04:20:55;10.47;;;4.53;;
2940;SDS011;1480;51.456;6.670;2023-07-02T04:23:22;13.37;;;5.43;;
2940;SDS011;1480;51.456;6.670;2023-07-02T04:25:49;13.93;;;6.90;;
2940;SDS011;1480;51.456;6.670;2023-07-02T04:28:15;15.63;;;5.67;;
2940;SDS011;1480;51.456;6.670;2023-07-02T04:30:43;8.13;;;4.33;;
2940;SDS011;1480;51.456;6.670;2023-07-02T04:33:11;10.03;;;5.33;;
2940;SDS011;1480;51.456;6.670;2023-07-02T04:35:39;9.53;;;4.37;;
2940;SDS011;1480;51.456;6.670;2023-07-02T04:38:06;13.60;;;5.60;;
2940;SDS011;1480;51.456;6.670;2023-07-02T04:40:32;10.93;;;5.27;;
2940;SDS011;1480;51.456;6.670;2023-07-02T04:42:59;10.73;;;5.63;;
2940;SDS011;1480;51.456;6.670;2023-07-02T04:45:26;20.63;;;5.17;;
2940;SDS011;1480;51.456;6.670;2023-07-02T04:47:58;9.27;;;4.70;;
2940;SDS011;1480;51.456;6.670;2023-07-02T04:50:26;17.07;;;6.30;;
2940;SDS011;1480;51.456;6.670;2023-07-02T04:52:52;13.73;;;6.00;;
2940;SDS011;1480;51.456;6.670;2023-07-02T04:55:20;15.63;;;5.97;;
2940;SDS011;1480;51.456;6.670;2023-07-02T04:57:47;15.03;;;5.73;;
2940;SDS011;1480;51.456;6.670;2023-07-02T05:00:14;8.93;;;4.00;;
2940;SDS011;1480;51.456;6.670;2023-07-02T05:02:41;10.97;;;5.33;;
2940;SDS011;1480;51.456;6.670;2023-07-02T05:05:09;15.23;;;5.50;;
2940;SDS011;1480;51.456;6.670;2023-07-02T05:07:36;11.77;;;4.30;;
2940;SDS011;1480;51.456;6.670;2023-07-02T05:10:03;16.67;;;6.47;;
2940;SDS011;1480;51.456;6.670;2023-07-02T05:12:30;11.27;;;5.60;;
2940;SDS011;1480;51.456;6.670;2023-07-02T05:14:57;19.60;;;6.30;;
2940;SDS011;1480;51.456;6.670;2023-07-02T05:17:23;11.20;;;4.90;;
2940;SDS011;1480;51.456;6.670;2023-07-02T05:19:50;14.07;;;5.67;;
2940;SDS011;1480;51.456;6.670;2023-07-02T05:22:18;11.70;;;5.00;;
2940;SDS011;1480;51.456;6.670;2023-07-02T05:24:45;12.70;;;5.90;;
2940;SDS011;1480;51.456;6.670;2023-07-02T05:27:12;18.30;;;6.60;;
2940;SDS011;1480;51.456;6.670;2023-07-02T05:29:39;18.30;;;6.07;;
2940;SDS011;1480;51.456;6.670;2023-07-02T05:32:06;12.87;;;7.37;;
2940;SDS011;1480;51.456;6.670;2023-07-02T05:34:33;14.57;;;6.10;;
2940;SDS011;1480;51.456;6.670;2023-07-02T05:36:59;12.60;;;5.60;;
2940;SDS011;1480;51.456;6.670;2023-07-02T05:39:27;12.10;;;6.97;;
2940;SDS011;1480;51.456;6.670;2023-07-02T05:41:55;10.10;;;5.10;;
2940;SDS011;1480;51.456;6.670;2023-07-02T05:44:22;13.83;;;6.03;;
2940;SDS011;1480;51.456;6.670;2023-07-02T05:46:49;13.03;;;6.53;;
2940;SDS011;1480;51.456;6.670;2023-07-02T05:49:16;13.87;;;5.83;;
2940;SDS011;1480;51.456;6.670;2023-07-02T05:51:43;11.77;;;6.07;;
2940;SDS011;1480;51.456;6.670;2023-07-02T05:54:09;14.60;;;5.50;;
2940;SDS011;1480;51.456;6.670;2023-07-02T05:56:37;10.63;;;5.83;;
2940;SDS011;1480;51.456;6.670;2023-07-02T05:59:04;13.17;;;5.73;;
2940;SDS011;1480;51.456;6.670;2023-07-02T06:01:30;14.67;;;6.73;;
2940;SDS011;1480;51.456;6.670;2023-07-02T06:03:58;14.83;;;6.47;;
2940;SDS011;1480;51.456;6.670;2023-07-02T06:06:25;14.80;;;5.97;;
2940;SDS011;1480;51.456;6.670;2023-07-02T06:08:52;12.63;;;5.73;;
2940;SDS011;1480;51.456;6.670;2023-07-02T06:11:18;14.83;;;5.87;;
2940;SDS011;1480;51.456;6.670;2023-07-02T06:16:30;10.23;;;5.73;;
2940;SDS011;1480;51.456;6.670;2023-07-02T06:18:56;19.17;;;5.90;;
2940;SDS011;1480;51.456;6.670;2023-07-02T06:21:23;12.07;;;5.80;;
2940;SDS011;1480;51.456;6.670;2023-07-02T06:23:54;13.80;;;5.63;;
2940;SDS011;1480;51.456;6.670;2023-07-02T06:26:22;9.67;;;4.70;;
2940;SDS011;1480;51.456;6.670;2023-07-02T06:28:48;12.70;;;6.33;;
2940;SDS011;1480;51.456;6.670;2023-07-02T06:31:16;17.37;;;6.07;;
2940;SDS011;1480;51.456;6.670;2023-07-02T06:33:43;9.63;;;5.33;;
2940;SDS011;1480;51.456;6.670;2023-07-02T06:36:10;12.33;;;5.80;;
2940;SDS011;1480;51.456;6.670;2023-07-02T06:38:38;10.17;;;4.80;;
2940;SDS011;1480;51.456;6.670;2023-07-02T06:41:04;8.63;;;4.03;;
2940;SDS011;1480;51.456;6.670;2023-07-02T06:43:31;12.00;;;6.10;;
2940;SDS011;1480;51.456;6.670;2023-07-02T06:45:58;12.53;;;5.00;;
2940;SDS011;1480;51.456;6.670;2023-07-02T06:48:26;11.00;;;4.73;;
2940;SDS011;1480;51.456;6.670;2023-07-02T06:50:52;8.30;;;4.80;;
2940;SDS011;1480;51.456;6.670;2023-07-02T06:53:19;11.27;;;5.20;;
2940;SDS011;1480;51.456;6.670;2023-07-02T06:55:46;12.73;;;5.63;;
2940;SDS011;1480;51.456;6.670;2023-07-02T06:58:12;17.03;;;6.53;;
2940;SDS011;1480;51.456;6.670;2023-07-02T07:00:39;13.93;;;5.73;;
2940;SDS011;1480;51.456;6.670;2023-07-02T07:03:06;12.87;;;5.10;;
2940;SDS011;1480;51.456;6.670;2023-07-02T07:05:34;11.13;;;5.50;;
2940;SDS011;1480;51.456;6.670;2023-07-02T07:08:00;11.60;;;5.20;;
2940;SDS011;1480;51.456;6.670;2023-07-02T07:10:27;14.50;;;6.37;;
2940;SDS011;1480;51.456;6.670;2023-07-02T07:12:59;14.03;;;4.90;;
2940;SDS011;1480;51.456;6.670;2023-07-02T07:15:26;8.20;;;5.13;;
2940;SDS011;1480;51.456;6.670;2023-07-02T07:17:52;11.60;;;3.93;;
2940;SDS011;1480;51.456;6.670;2023-07-02T07:20:19;7.60;;;3.20;;
2940;SDS011;1480;51.456;6.670;2023-07-02T07:22:47;10.23;;;4.23;;
2940;SDS011;1480;51.456;6.670;2023-07-02T07:25:14;8.83;;;3.57;;
2940;SDS011;1480;51.456;6.670;2023-07-02T07:27:41;13.70;;;3.87;;
2940;SDS011;1480;51.456;6.670;2023-07-02T07:30:07;6.13;;;3.30;;
2940;SDS011;1480;51.456;6.670;2023-07-02T07:32:35;9.17;;;4.10;;
2940;SDS011;1480;51.456;6.670;2023-07-02T07:35:01;10.33;;;4.60;;
2940;SDS011;1480;51.456;6.670;2023-07-02T07:37:28;8.07;;;3.90;;
2940;SDS011;1480;51.456;6.670;2023-07-02T07:39:56;8.53;;;4.47;;
2940;SDS011;1480;51.456;6.670;2023-07-02T07:42:23;5.43;;;3.83;;
2940;SDS011;1480;51.456;6.670;2023-07-02T07:44:49;16.07;;;4.87;;
2940;SDS011;1480;51.456;6.670;2023-07-02T07:47:16;8.20;;;4.40;;
2940;SDS011;1480;51.456;6.670;2023-07-02T07:49:43;8.20;;;3.87;;
2940;SDS011;1480;51.456;6.670;2023-07-02T07:52:09;9.50;;;5.10;;
2940;SDS011;1480;51.456;6.670;2023-07-02T07:54:36;11.97;;;4.30;;
2940;SDS011;1480;51.456;6.670;2023-07-02T07:57:04;7.60;;;3.93;;
2940;SDS011;1480;51.456;6.670;2023-07-02T07:59:31;6.17;;;3.30;;
2940;SDS011;1480;51.456;6.670;2023-07-02T08:01:58;8.63;;;3.63;;
2940;SDS011;1480;51.456;6.670;2023-07-02T08:04:25;6.83;;;3.47;;
2940;SDS011;1480;51.456;6.670;2023-07-02T08:06:51;9.30;;;3.87;;
2940;SDS011;1480;51.456;6.670;2023-07-02T08:09:20;7.13;;;3.00;;
2940;SDS011;1480;51.456;6.670;2023-07-02T08:11:46;13.07;;;3.77;;
2940;SDS011;1480;51.456;6.670;2023-07-02T08:14:15;8.97;;;3.40;;
2940;SDS011;1480;51.456;6.670;2023-07-02T08:16:42;6.50;;;3.47;;
2940;SDS011;1480;51.456;6.670;2023-07-02T08:19:09;7.50;;;3.27;;
2940;SDS011;1480;51.456;6.670;2023-07-02T08:21:36;8.53;;;3.30;;
2940;SDS011;1480;51.456;6.670;2023-07-02T08:24:03;5.70;;;2.90;;
2940;SDS011;1480;51.456;6.670;2023-07-02T08:26:31;7.10;;;3.60;;
2940;SDS011;1480;51.456;6.670;2023-07-02T08:28:57;6.00;;;2.80;;
2940;SDS011;1480;51.456;6.670;2023-07-02T08:31:25;8.47;;;3.33;;
2940;SDS011;1480;51.456;6.670;2023-07-02T08:33:52;9.10;;;3.43;;
2940;SDS011;1480;51.456;6.670;2023-07-02T08:36:19;5.50;;;2.50;;
2940;SDS011;1480;51.456;6.670;2023-07-02T08:38:45;4.13;;;2.90;;
2940;SDS011;1480;51.456;6.670;2023-07-02T08:41:12;5.97;;;2.47;;
2940;SDS011;1480;51.456;6.670;2023-07-02T08:43:39;6.93;;;3.23;;
2940;SDS011;1480;51.456;6.670;2023-07-02T08:46:06;5.23;;;2.60;;
2940;SDS011;1480;51.456;6.670;2023-07-02T08:48:34;6.23;;;3.00;;
2940;SDS011;1480;51.456;6.670;2023-07-02T08:51:02;5.80;;;2.30;;
2940;SDS011;1480;51.456;6.670;2023-07-02T08:53:29;5.37;;;3.60;;
2940;SDS011;1480;51.456;6.670;2023-07-02T08:55:59;7.33;;;3.87;;
2940;SDS011;1480;51.456;6.670;2023-07-02T08:58:25;8.33;;;2.67;;
2940;SDS011;1480;51.456;6.670;2023-07-02T09:01:05;5.87;;;3.00;;
2940;SDS011;1480;51.456;6.670;2023-07-02T09:03:36;7.73;;;4.47;;
2940;SDS011;1480;51.456;6.670;2023-07-02T09:06:05;5.47;;;2.60;;
2940;SDS011;1480;51.456;6.670;2023-07-02T09:08:33;11.47;;;3.27;;
2940;SDS011;1480;51.456;6.670;2023-07-02T09:11:07;7.20;;;3.10;;
2940;SDS011;1480;51.456;6.670;2023-07-02T09:13:46;7.60;;;3.30;;
2940;SDS011;1480;51.456;6.670;2023-07-02T09:16:20;6.60;;;2.70;;
2940;SDS011;1480;51.456;6.670;2023-07-02T09:19:02;15.07;;;4.00;;
2940;SDS011;1480;51.456;6.670;2023-07-02T09:21:40;8.27;;;3.83;;
2940;SDS011;1480;51.456;6.670;2023-07-02T09:24:16;7.30;;;3.63;;
2940;SDS011;1480;51.456;6.670;2023-07-02T09:26:44;7.53;;;4.20;;
2940;SDS011;1480;51.456;6.670;2023-07-02T09:29:11;7.37;;;3.10;;
2940;SDS011;1480;51.456;6.670;2023-07-02T09:31:45;7.30;;;3.60;;
2940;SDS011;1480;51.456;6.670;2023-07-02T09:34:13;5.73;;;3.20;;
2940;SDS011;1480;51.456;6.670;2023-07-02T09:36:40;4.50;;;2.73;;
2940;SDS011;1480;51.456;6.670;2023-07-02T09:39:07;3.80;;;2.37;;
2940;SDS011;1480;51.456;6.670;2023-07-02T09:41:37;7.70;;;2.60;;
2940;SDS011;1480;51.456;6.670;2023-07-02T09:44:04;5.10;;;2.57;;
2940;SDS011;1480;51.456;6.670;2023-07-02T09:46:32;3.70;;;2.10;;
2940;SDS011;1480;51.456;6.670;2023-07-02T09:49:00;9.63;;;2.70;;
2940;SDS011;1480;51.456;6.670;2023-07-02T09:51:28;7.13;;;2.77;;
2940;SDS011;1480;51.456;6.670;2023-07-02T09:53:55;5.77;;;2.83;;
2940;SDS011;1480;51.456;6.670;2023-07-02T09:56:22;9.63;;;2.67;;
2940;SDS011;1480;51.456;6.670;2023-07-02T09:58:48;8.07;;;3.30;;
2940;SDS011;1480;51.456;6.670;2023-07-02T10:01:15;8.07;;;3.23;;
2940;SDS011;1480;51.456;6.670;2023-07-02T10:03:42;14.90;;;4.13;;
2940;SDS011;1480;51.456;6.670;2023-07-02T10:06:09;9.50;;;3.27;;
2940;SDS011;1480;51.456;6.670;2023-07-02T10:08:37;5.07;;;3.07;;
2940;SDS011;1480;51.456;6.670;2023-07-02T10:11:07;7.37;;;2.40;;
2940;SDS011;1480;51.456;6.670;2023-07-02T10:13:38;6.23;;;2.97;;
2940;SDS011;1480;51.456;6.670;2023-07-02T10:16:05;4.47;;;2.03;;
2940;SDS011;1480;51.456;6.670;2023-07-02T10:18:32;4.37;;;2.60;;
2940;SDS011;1480;51.456;6.670;2023-07-02T10:20:59;11.50;;;3.23;;
2940;SDS011;1480;51.456;6.670;2023-07-02T10:23:33;13.70;;;3.27;;
2940;SDS011;1480;51.456;6.670;2023-07-02T10:26:10;9.20;;;3.20;;
2940;SDS011;1480;51.456;6.670;2023-07-02T10:28:39;10.30;;;3.50;;
2940;SDS011;1480;51.456;6.670;2023-07-02T10:31:16;9.53;;;3.10;;
2940;SDS011;1480;51.456;6.670;2023-07-02T10:33:44;6.90;;;3.03;;
2940;SDS011;1480;51.456;6.670;2023-07-02T10:36:17;5.67;;;3.13;;
2940;SDS011;1480;51.456;6.670;2023-07-02T10:38:44;5.47;;;2.80;;
2940;SDS011;1480;51.456;6.670;2023-07-02T10:41:22;5.77;;;2.70;;
2940;SDS011;1480;51.456;6.670;2023-07-02T10:43:49;6.40;;;2.50;;
2940;SDS011;1480;51.456;6.670;2023-07-02T10:46:18;5.13;;;2.67;;
2940;SDS011;1480;51.456;6.670;2023-07-02T10:48:50;5.33;;;2.70;;
2940;SDS011;1480;51.456;6.670;2023-07-02T10:51:17;4.40;;;2.57;;
2940;SDS011;1480;51.456;6.670;2023-07-02T10:53:44;6.80;;;3.03;;
2940;SDS011;1480;51.456;6.670;2023-07-02T10:56:16;7.30;;;3.23;;
2940;SDS011;1480;51.456;6.670;2023-07-02T10:58:43;5.97;;;2.83;;
2940;SDS011;1480;51.456;6.670;2023-07-02T11:01:11;6.87;;;3.03;;
2940;SDS011;1480;51.456;6.670;2023-07-02T11:03:38;5.47;;;3.10;;
2940;SDS011;1480;51.456;6.670;2023-07-02T11:06:04;8.83;;;2.97;;
2940;SDS011;1480;51.456;6.670;2023-07-02T11:08:34;3.57;;;2.20;;
2940;SDS011;1480;51.456;6.670;2023-07-02T11:11:05;8.23;;;3.47;;
2940;SDS011;1480;51.456;6.670;2023-07-02T11:13:34;4.03;;;2.40;;
2940;SDS011;1480;51.456;6.670;2023-07-02T11:16:01;8.80;;;3.07;;
2940;SDS011;1480;51.456;6.670;2023-07-02T11:18:30;5.30;;;2.87;;
2940;SDS011;1480;51.456;6.670;2023-07-02T11:20:57;5.20;;;2.57;;
2940;SDS011;1480;51.456;6.670;2023-07-02T11:23:24;10.87;;;3.27;;
2940;SDS011;1480;51.456;6.670;2023-07-02T11:25:55;5.37;;;2.40;;
2940;SDS011;1480;51.456;6.670;2023-07-02T11:28:23;3.63;;;2.17;;
2940;SDS011;1480;51.456;6.670;2023-07-02T11:30:52;5.43;;;2.53;;
2940;SDS011;1480;51.456;6.670;2023-07-02T11:33:18;6.90;;;3.20;;
2940;SDS011;1480;51.456;6.670;2023-07-02T11:35:46;5.93;;;2.93;;
2940;SDS011;1480;51.456;6.670;2023-07-02T11:38:13;6.70;;;2.90;;
2940;SDS011;1480;51.456;6.670;2023-07-02T11:40:39;5.60;;;2.23;;
2940;SDS011;1480;51.456;6.670;2023-07-02T11:43:06;8.23;;;3.20;;
2940;SDS011;1480;51.456;6.670;2023-07-02T11:45:33;5.13;;;2.70;;
2940;SDS011;1480;51.456;6.670;2023-07-02T11:48:01;10.90;;;3.00;;
2940;SDS011;1480;51.456;6.670;2023-07-02T11:50:27;8.40;;;3.17;;
2940;SDS011;1480;51.456;6.670;2023-07-02T11:52:55;4.73;;;2.30;;
2940;SDS011;1480;51.456;6.670;2023-07-02T11:55:22;5.10;;;2.73;;
2940;SDS011;1480;51.456;6.670;2023-07-02T11:57:49;6.00;;;2.53;;
2940;SDS011;1480;51.456;6.670;2023-07-02T12:00:15;7.13;;;3.00;;
2940;SDS011;1480;51.456;6.670;2023-07-02T12:02:42;6.67;;;2.77;;
2940;SDS011;1480;51.456;6.670;2023-07-02T12:05:10;9.13;;;2.50;;
2940;SDS011;1480;51.456;6.670;2023-07-02T12:07:37;4.00;;;2.10;;
2940;SDS011;1480;51.456;6.670;2023-07-02T12:10:04;6.87;;;3.50;;
2940;SDS011;1480;51.456;6.670;2023-07-02T12:12:31;7.60;;;3.60;;
2940;SDS011;1480;51.456;6.670;2023-07-02T12:14:58;8.13;;;3.23;;
2940;SDS011;1480;51.456;6.670;2023-07-02T12:17:25;6.77;;;3.60;;
2940;SDS011;1480;51.456;6.670;2023-07-02T12:19:52;10.33;;;3.07;;
2940;SDS011;1480;51.456;6.670;2023-07-02T12:26:06;7.17;;;3.00;;
2940;SDS011;1480;51.456;6.670;2023-07-02T12:28:33;8.70;;;3.87;;
2940;SDS011;1480;51.456;6.670;2023-07-02T12:31:00;7.20;;;3.17;;
2940;SDS011;1480;51.456;6.670;2023-07-02T12:33:27;6.20;;;3.27;;
2940;SDS011;1480;51.456;6.670;2023-07-02T12:35:54;5.70;;;2.40;;
2940;SDS011;1480;51.456;6.670;2023-07-02T12:38:21;5.10;;;2.80;;
2940;SDS011;1480;51.456;6.670;2023-07-02T12:40:47;7.07;;;4.40;;
2940;SDS011;1480;51.456;6.670;2023-07-02T12:43:16;8.23;;;4.40;;
2940;SDS011;1480;51.456;6.670;2023-07-02T12:45:42;4.70;;;2.90;;
2940;SDS011;1480;51.456;6.670;2023-07-02T12:48:09;5.43;;;2.83;;
2940;SDS011;1480;51.456;6.670;2023-07-02T12:50:36;6.30;;;3.10;;
2940;SDS011;1480;51.456;6.670;2023-07-02T12:53:03;6.33;;;2.97;;
2940;SDS011;1480;51.456;6.670;2023-07-02T12:55:30;6.23;;;2.97;;
2940;SDS011;1480;51.456;6.670;2023-07-02T12:57:57;8.00;;;4.23;;
2940;SDS011;1480;51.456;6.670;2023-07-02T13:00:25;5.90;;;3.60;;
2940;SDS011;1480;51.456;6.670;2023-07-02T13:02:52;11.20;;;6.30;;
2940;SDS011;1480;51.456;6.670;2023-07-02T13:05:18;7.67;;;3.40;;
2940;SDS011;1480;51.456;6.670;2023-07-02T13:07:45;9.03;;;3.90;;
2940;SDS011;1480;51.456;6.670;2023-07-02T13:10:12;10.97;;;3.90;;
2940;SDS011;1480;51.456;6.670;2023-07-02T13:12:38;8.03;;;3.90;;
2940;SDS011;1480;51.456;6.670;2023-07-02T13:15:05;6.57;;;3.40;;
2940;SDS011;1480;51.456;6.670;2023-07-02T13:17:34;12.57;;;5.90;;
2940;SDS011;1480;51.456;6.670;2023-07-02T13:20:01;7.33;;;3.23;;
2940;SDS011;1480;51.456;6.670;2023-07-02T13:22:28;6.90;;;3.93;;
2940;SDS011;1480;51.456;6.670;2023-07-02T13:24:54;6.77;;;3.27;;
2940;SDS011;1480;51.456;6.670;2023-07-02T13:27:21;7.00;;;2.97;;
2940;SDS011;1480;51.456;6.670;2023-07-02T13:29:48;6.70;;;3.37;;
2940;SDS011;1480;51.456;6.670;2023-07-02T13:32:14;4.93;;;2.53;;
2940;SDS011;1480;51.456;6.670;2023-07-02T13:34:42;7.13;;;4.03;;
2940;SDS011;1480;51.456;6.670;2023-07-02T13:37:09;10.40;;;4.07;;
2940;SDS011;1480;51.456;6.670;2023-07-02T13:39:36;5.83;;;3.10;;
2940;SDS011;1480;51.456;6.670;2023-07-02T13:42:02;6.60;;;3.60;;
2940;SDS011;1480;51.456;6.670;2023-07-02T13:44:30;9.03;;;3.70;;
2940;SDS011;1480;51.456;6.670;2023-07-02T13:46:56;6.43;;;3.40;;
2940;SDS011;1480;51.456;6.670;2023-07-02T13:49:23;11.20;;;4.23;;
2940;SDS011;1480;51.456;6.670;2023-07-02T13:51:51;10.73;;;3.87;;
2940;SDS011;1480;51.456;6.670;2023-07-02T13:54:18;7.57;;;4.33;;
2940;SDS011;1480;51.456;6.670;2023-07-02T13:56:45;8.67;;;4.30;;
2940;SDS011;1480;51.456;6.670;2023-07-02T13:59:13;4.63;;;2.97;;
2940;SDS011;1480;51.456;6.670;2023-07-02T14:01:41;6.13;;;3.30;;
2940;SDS011;1480;51.456;6.670;2023-07-02T14:04:07;10.40;;;4.13;;
2940;SDS011;1480;51.456;6.670;2023-07-02T14:06:34;9.97;;;4.67;;
2940;SDS011;1480;51.456;6.670;2023-07-02T14:09:01;7.60;;;3.50;;
2940;SDS011;1480;51.456;6.670;2023-07-02T14:11:28;13.43;;;4.40;;
2940;SDS011;1480;51.456;6.670;2023-07-02T14:13:55;8.70;;;4.63;;
2940;SDS011;1480;51.456;6.670;2023-07-02T14:16:23;8.90;;;3.07;;
2940;SDS011;1480;51.456;6.670;2023-07-02T14:18:50;9.00;;;5.20;;
2940;SDS011;1480;51.456;6.670;2023-07-02T14:21:17;6.37;;;3.23;;
2940;SDS011;1480;51.456;6.670;2023-07-02T14:23:44;6.90;;;3.93;;
2940;SDS011;1480;51.456;6.670;2023-07-02T14:26:11;8.30;;;3.73;;
2940;SDS011;1480;51.456;6.670;2023-07-02T14:28:37;9.70;;;4.40;;
2940;SDS011;1480;51.456;6.670;2023-07-02T14:31:05;8.63;;;3.43;;
2940;SDS011;1480;51.456;6.670;2023-07-02T14:33:34;7.67;;;4.37;;
2940;SDS011;1480;51.456;6.670;2023-07-02T14:36:02;8.00;;;4.27;;
2940;SDS011;1480;51.456;6.670;2023-07-02T14:38:29;6.83;;;3.93;;
2940;SDS011;1480;51.456;6.670;2023-07-02T14:40:56;7.27;;;4.10;;
2940;SDS011;1480;51.456;6.670;2023-07-02T14:43:24;13.43;;;4.20;;
2940;SDS011;1480;51.456;6.670;2023-07-02T14:45:53;11.00;;;4.77;;
2940;SDS011;1480;51.456;6.670;2023-07-02T14:48:21;5.90;;;2.97;;
2940;SDS011;1480;51.456;6.670;2023-07-02T14:50:49;11.80;;;3.60;;
2940;SDS011;1480;51.456;6.670;2023-07-02T14:53:17;8.80;;;3.77;;
2940;SDS011;1480;51.456;6.670;2023-07-02T14:55:44;11.33;;;3.67;;
2940;SDS011;1480;51.456;6.670;2023-07-02T14:58:11;6.07;;;3.87;;
2940;SDS011;1480;51.456;6.670;2023-07-02T15:00:42;8.07;;;4.57;;
2940;SDS011;1480;51.456;6.670;2023-07-02T15:03:09;6.90;;;2.83;;
2940;SDS011;1480;51.456;6.670;2023-07-02T15:05:36;7.50;;;3.03;;
2940;SDS011;1480;51.456;6.670;2023-07-02T15:08:05;9.27;;;3.13;;
2940;SDS011;1480;51.456;6.670;2023-07-02T15:10:32;7.80;;;3.03;;
2940;SDS011;1480;51.456;6.670;2023-07-02T15:12:59;5.93;;;2.77;;
2940;SDS011;1480;51.456;6.670;2023-07-02T15:15:26;5.73;;;3.03;;
2940;SDS011;1480;51.456;6.670;2023-07-02T15:17:53;6.83;;;3.80;;
2940;SDS011;1480;51.456;6.670;2023-07-02T15:20:19;12.10;;;5.10;;